Time;durP1;ratioP1;P1;durP2;ratioP2;P2;SDS_P1;SDS_P2;PMS_P1;PMS_P2;Temp;Humidity;BMP_temperature;BMP_pressure;BME280_temperature;BME280_humidity;BME280_pressure;Samples;Min_cycle;Max_cycle;Signal;HPM_P1;HPM_P2
2023/03/06 00:00:04;;;;;;;15.20;9.97;;;;;;;1.98;100.00;100044.75;697204;28;4409;-61
2023/03/06 00:00:48;;;;;;;13.15;9.52;;;;;;;2.04;100.00;100042.28;701915;28;1118;-61
2023/03/06 00:01:09;;;;;;;13.63;9.50;;;;;;;2.00;100.00;100044.78;699390;28;1338;-61
2023/03/06 00:01:29;;;;;;;13.73;9.32;;;;;;;1.93;100.00;100046.34;697707;28;1317;-61
2023/03/06 00:01:50;;;;;;;14.20;9.87;;;;;;;1.91;100.00;100039.44;692840;28;1183;-61
2023/03/06 00:02:13;;;;;;;14.65;10.40;;;;;;;1.87;100.00;100044.53;695601;28;1452;-62
2023/03/06 00:02:34;;;;;;;14.55;9.95;;;;;;;1.92;100.00;100043.75;691850;28;1343;-61
2023/03/06 00:02:54;;;;;;;14.17;10.30;;;;;;;1.99;100.00;100041.31;693137;28;4400;-61
2023/03/06 00:03:15;;;;;;;14.07;9.82;;;;;;;1.95;100.00;100044.69;694103;28;1296;-61
2023/03/06 00:03:36;;;;;;;14.95;10.40;;;;;;;1.93;100.00;100041.19;693689;28;1099;-61
2023/03/06 00:03:56;;;;;;;18.58;11.00;;;;;;;1.92;100.00;100043.75;696896;28;1154;-61
2023/03/06 00:04:18;;;;;;;16.37;11.00;;;;;;;1.86;100.00;100041.91;696051;28;1218;-61
2023/03/06 00:04:40;;;;;;;14.94;10.78;;;;;;;1.85;100.00;100032.44;692742;28;5309;-62
2023/03/06 00:05:00;;;;;;;14.57;10.57;;;;;;;1.83;100.00;100044.44;693573;28;1977;-62
2023/03/06 00:05:26;;;;;;;16.08;11.15;;;;;;;1.82;100.00;100040.97;695027;28;1290;-62
2023/03/06 00:05:50;;;;;;;17.00;11.30;;;;;;;1.82;100.00;100040.13;696125;28;1111;-61
2023/03/06 00:06:10;;;;;;;16.33;11.30;;;;;;;1.80;100.00;100037.50;689145;28;4338;-62
2023/03/06 00:06:31;;;;;;;14.98;11.02;;;;;;;1.80;100.00;100041.78;694557;28;1346;-61
2023/03/06 00:06:52;;;;;;;16.40;11.50;;;;;;;1.77;100.00;100039.13;696441;28;1587;-61
2023/03/06 00:07:13;;;;;;;16.23;11.23;;;;;;;1.76;100.00;100037.38;696214;28;1166;-61
2023/03/06 00:07:33;;;;;;;15.93;10.80;;;;;;;1.78;100.00;100040.88;698659;28;1147;-61
2023/03/06 00:07:54;;;;;;;16.60;11.30;;;;;;;1.81;100.00;100035.78;698454;28;1095;-61
2023/03/06 00:08:14;;;;;;;18.47;11.90;;;;;;;1.81;100.00;100036.66;698514;28;1164;-59
2023/03/06 00:08:34;;;;;;;15.98;11.00;;;;;;;1.80;100.00;100037.50;698676;28;1130;-61
2023/03/06 00:08:55;;;;;;;16.10;11.07;;;;;;;1.80;100.00;100039.19;697379;28;4573;-61
2023/03/06 00:09:16;;;;;;;17.23;11.15;;;;;;;1.81;100.00;100036.66;699719;28;1372;-60
2023/03/06 00:09:37;;;;;;;15.25;10.45;;;;;;;1.89;100.00;100035.97;696087;28;1173;-61
2023/03/06 00:09:57;;;;;;;14.93;10.38;;;;;;;1.90;100.00;100032.53;697732;28;1347;-61
2023/03/06 00:10:24;;;;;;;14.50;10.60;;;;;;;1.87;100.00;100035.94;693796;28;1210;-61
2023/03/06 00:10:44;;;;;;;15.43;10.57;;;;;;;1.86;100.00;100041.91;691320;28;1826;-61
2023/03/06 00:11:08;;;;;;;15.98;10.73;;;;;;;1.86;100.00;100036.75;693205;28;1397;-61
2023/03/06 00:11:28;;;;;;;15.88;10.90;;;;;;;1.85;100.00;100035.00;694770;28;1294;-61
2023/03/06 00:11:49;;;;;;;16.85;10.93;;;;;;;1.89;100.00;100033.38;693934;28;1054;-62
2023/03/06 00:12:09;;;;;;;16.90;10.97;;;;;;;1.85;100.00;100029.84;696121;28;4335;-61
2023/03/06 00:12:30;;;;;;;15.35;10.93;;;;;;;1.82;100.00;100035.81;694636;28;1260;-61
2023/03/06 00:12:56;;;;;;;16.42;11.23;;;;;;;1.83;100.00;100035.00;696613;28;1440;-61
2023/03/06 00:13:19;;;;;;;16.52;11.30;;;;;;;1.81;100.00;100033.22;693650;28;1223;-61
2023/03/06 00:13:40;;;;;;;15.20;10.77;;;;;;;1.86;100.00;100034.19;690154;28;1001;-61
2023/03/06 00:14:01;;;;;;;15.40;10.40;;;;;;;1.89;100.00;100035.97;690857;28;1128;-61
2023/03/06 00:14:21;;;;;;;16.15;10.77;;;;;;;1.87;100.00;100030.78;694364;28;1159;-61
2023/03/06 00:14:42;;;;;;;17.07;11.57;;;;;;;1.98;100.00;100036.13;696968;28;950;-64
2023/03/06 00:15:02;;;;;;;16.02;11.48;;;;;;;1.92;100.00;100028.28;697388;28;4471;-60
2023/03/06 00:15:25;;;;;;;15.98;11.07;;;;;;;1.87;100.00;100033.34;700033;28;1052;-60
2023/03/06 00:15:47;;;;;;;16.50;10.93;;;;;;;1.82;100.00;100035.81;694588;28;1422;-59
2023/03/06 00:16:07;;;;;;;15.13;11.05;;;;;;;1.82;100.00;100037.53;692763;28;1230;-61
2023/03/06 00:16:28;;;;;;;15.98;10.98;;;;;;;1.85;100.00;100032.44;693394;28;1285;-62
2023/03/06 00:16:48;;;;;;;15.83;10.97;;;;;;;1.90;100.00;100030.84;693511;28;1069;-62
2023/03/06 00:17:12;;;;;;;15.23;10.93;;;;;;;1.89;100.00;100030.81;695626;28;1241;-63
2023/03/06 00:17:32;;;;;;;15.77;11.02;;;;;;;1.85;100.00;100028.13;694306;28;1106;-61
2023/03/06 00:17:54;;;;;;;17.00;10.93;;;;;;;1.81;100.00;100028.91;698606;28;4334;-61
2023/03/06 00:18:14;;;;;;;17.10;10.50;;;;;;;1.89;100.00;100033.38;696924;28;1134;-62
2023/03/06 00:18:35;;;;;;;16.23;10.87;;;;;;;1.93;100.00;100030.88;696952;28;1208;-61
2023/03/06 00:18:55;;;;;;;16.08;11.00;;;;;;;1.91;100.00;100029.13;698318;28;1312;-62
2023/03/06 00:19:16;;;;;;;15.73;10.97;;;;;;;1.92;100.00;100023.97;697053;28;1099;-62
2023/03/06 00:19:36;;;;;;;14.40;11.05;;;;;;;1.94;100.00;100026.59;697692;28;962;-62
2023/03/06 00:19:56;;;;;;;14.73;10.27;;;;;;;1.90;100.00;100023.09;697482;28;1287;-61
2023/03/06 00:20:18;;;;;;;15.15;10.45;;;;;;;1.87;100.00;100034.22;698808;28;1039;-62
2023/03/06 00:20:41;;;;;;;16.55;11.00;;;;;;;2.04;100.00;100024.22;698201;28;1007;-62
2023/03/06 00:21:08;;;;;;;15.57;10.55;;;;;;;2.10;100.00;100017.47;697155;28;4449;-62
2023/03/06 00:21:28;;;;;;;15.13;10.43;;;;;;;2.02;100.00;100023.34;697073;28;1464;-60
2023/03/06 00:21:49;;;;;;;14.63;10.77;;;;;;;2.00;100.00;100019.84;696240;28;1061;-61
2023/03/06 00:22:12;;;;;;;15.87;10.80;;;;;;;2.10;100.00;100017.47;699043;28;1440;-60
2023/03/06 00:22:33;;;;;;;16.08;10.98;;;;;;;2.10;100.00;100018.31;696756;28;1020;-61
2023/03/06 00:22:55;;;;;;;15.85;10.90;;;;;;;2.07;100.00;100020.00;696479;28;1305;-60
2023/03/06 00:23:15;;;;;;;16.38;10.90;;;;;;;2.02;100.00;100025.91;697493;28;1376;-60
2023/03/06 00:23:36;;;;;;;16.27;11.02;;;;;;;1.99;100.00;100018.09;695407;28;1043;-61
2023/03/06 00:23:56;;;;;;;15.67;11.00;;;;;;;1.94;100.00;100019.75;695584;28;4608;-62
2023/03/06 00:24:17;;;;;;;14.20;10.43;;;;;;;1.93;100.00;100023.16;696182;28;1234;-61
2023/03/06 00:24:41;;;;;;;16.38;11.48;;;;;;;1.91;100.00;100022.28;693850;28;1059;-61
2023/03/06 00:25:03;;;;;;;16.08;11.30;;;;;;;1.87;100.00;100026.47;695747;28;1965;-61
2023/03/06 00:25:26;;;;;;;17.85;11.50;;;;;;;1.84;100.00;100023.84;693972;28;1072;-61
2023/03/06 00:25:46;;;;;;;16.23;11.20;;;;;;;1.84;100.00;100023.84;693467;28;1008;-61
2023/03/06 00:26:07;;;;;;;15.77;11.33;;;;;;;1.84;100.00;100020.38;691716;28;1361;-61
2023/03/06 00:26:28;;;;;;;16.85;10.75;;;;;;;1.82;100.00;100028.09;695240;28;1589;-61
2023/03/06 00:26:49;;;;;;;16.15;10.70;;;;;;;1.82;100.00;100019.50;696565;28;1153;-61
2023/03/06 00:27:10;;;;;;;15.98;10.95;;;;;;;1.80;100.00;100023.72;695001;28;4346;-61
2023/03/06 00:27:31;;;;;;;14.98;11.00;;;;;;;1.94;100.00;100018.84;695458;28;1441;-61
2023/03/06 00:27:52;;;;;;;15.52;10.65;;;;;;;1.91;100.00;100021.38;691245;28;1384;-62
2023/03/06 00:28:14;;;;;;;15.13;10.93;;;;;;;1.87;100.00;100016.16;692515;28;1096;-62
2023/03/06 00:28:35;;;;;;;17.02;11.43;;;;;;;1.85;100.00;100024.69;690196;28;1474;-62
2023/03/06 00:28:56;;;;;;;16.83;11.50;;;;;;;1.84;100.00;100015.22;692847;28;1259;-61
2023/03/06 00:29:16;;;;;;;16.17;10.90;;;;;;;1.82;100.00;100019.50;695435;28;1345;-61
2023/03/06 00:29:38;;;;;;;16.40;11.40;;;;;;;1.86;100.00;100018.72;693938;28;1247;-62
2023/03/06 00:30:00;;;;;;;15.98;11.25;;;;;;;1.90;100.00;100025.69;692158;28;4311;-61
2023/03/06 00:30:23;;;;;;;17.30;11.30;;;;;;;1.88;100.00;100019.59;688913;28;1956;-61
2023/03/06 00:30:44;;;;;;;16.90;11.32;;;;;;;1.89;100.00;100018.78;688091;28;1032;-61
2023/03/06 00:31:08;;;;;;;15.80;10.77;;;;;;;1.89;100.00;100023.94;686837;28;1273;-61
2023/03/06 00:31:32;;;;;;;16.45;11.73;;;;;;;1.83;100.00;100028.97;684692;28;1364;-61
2023/03/06 00:31:52;;;;;;;15.73;11.38;;;;;;;1.79;100.00;100017.72;687242;28;1333;-61
2023/03/06 00:32:13;;;;;;;15.57;11.03;;;;;;;1.82;100.00;100016.91;684717;28;1389;-62
2023/03/06 00:32:33;;;;;;;16.48;11.40;;;;;;;1.83;100.00;100021.25;686590;28;1072;-61
2023/03/06 00:32:58;;;;;;;16.98;11.43;;;;;;;1.82;100.00;100022.94;682477;28;4777;-61
2023/03/06 00:33:19;;;;;;;16.95;11.57;;;;;;;1.80;100.00;100021.16;686455;28;1255;-61
2023/03/06 00:33:42;;;;;;;17.02;11.45;;;;;;;1.81;100.00;100021.19;684887;28;1128;-61
2023/03/06 00:34:04;;;;;;;16.80;11.60;;;;;;;1.85;100.00;100014.41;685175;28;1303;-61
2023/03/06 00:34:24;;;;;;;16.60;11.30;;;;;;;1.83;100.00;100011.78;685963;28;1259;-61
2023/03/06 00:34:48;;;;;;;17.58;11.50;;;;;;;1.91;100.00;100013.66;688113;28;1036;-61
2023/03/06 00:35:10;;;;;;;16.77;11.60;;;;;;;1.92;100.00;100008.53;690390;28;1286;-61
2023/03/06 00:35:30;;;;;;;15.57;11.23;;;;;;;1.88;100.00;100017.03;692365;28;1339;-61
2023/03/06 00:35:51;;;;;;;14.48;11.05;;;;;;;1.85;100.00;100017.84;692298;28;4450;-61
2023/03/06 00:36:14;;;;;;;15.07;10.70;;;;;;;1.81;100.00;100015.16;689528;28;1378;-61
2023/03/06 00:36:34;;;;;;;17.45;11.75;;;;;;;1.80;100.00;100018.56;685165;28;1741;-61
2023/03/06 00:36:55;;;;;;;17.10;11.93;;;;;;;1.77;100.00;100008.22;685660;28;1134;-60
2023/03/06 00:37:15;;;;;;;17.77;12.38;;;;;;;1.75;100.00;100009.91;685630;28;1275;-61
2023/03/06 00:37:36;;;;;;;15.90;11.37;;;;;;;1.73;100.00;100014.13;687371;28;1150;-60
2023/03/06 00:37:58;;;;;;;16.63;11.40;;;;;;;1.72;100.00;100014.97;690041;28;1223;-61
2023/03/06 00:38:18;;;;;;;16.27;11.45;;;;;;;1.70;100.00;100009.78;690525;28;1216;-61
2023/03/06 00:38:39;;;;;;;17.08;11.70;;;;;;;1.70;100.00;100012.38;690567;28;1096;-61
2023/03/06 00:38:59;;;;;;;17.40;12.03;;;;;;;1.69;100.00;100005.50;693507;28;4570;-61
2023/03/06 00:39:20;;;;;;;17.23;12.40;;;;;;;1.67;100.00;100010.59;696229;28;1285;-60
2023/03/06 00:39:41;;;;;;;16.63;12.35;;;;;;;1.69;100.00;100015.81;695614;28;1111;-60
2023/03/06 00:40:07;;;;;;;17.27;12.20;;;;;;;1.69;100.00;100006.34;693962;28;1262;-60
2023/03/06 00:40:28;;;;;;;16.45;11.40;;;;;;;1.70;100.00;100007.22;690587;28;1265;-59
2023/03/06 00:40:48;;;;;;;16.70;11.70;;;;;;;1.73;100.00;100011.56;691814;28;1099;-60
2023/03/06 00:41:10;;;;;;;16.37;11.30;;;;;;;1.78;100.00;100009.97;691311;28;1405;-61
2023/03/06 00:41:30;;;;;;;16.27;11.43;;;;;;;1.74;100.00;100003.88;687570;28;1453;-60
2023/03/06 00:41:51;;;;;;;17.67;11.95;;;;;;;1.72;100.00;100009.81;688221;28;4584;-61
2023/03/06 00:42:12;;;;;;;18.13;12.00;;;;;;;1.68;100.00;100003.75;690064;28;1293;-61
2023/03/06 00:42:32;;;;;;;17.27;11.93;;;;;;;1.68;100.00;100007.19;689562;28;1203;-61
2023/03/06 00:42:53;;;;;;;15.57;11.20;;;;;;;1.70;100.00;100012.38;685738;28;1323;-61
2023/03/06 00:43:13;;;;;;;15.85;11.45;;;;;;;1.70;100.00;100002.94;684643;28;1240;-61
2023/03/06 00:43:35;;;;;;;16.50;11.27;;;;;;;1.72;100.00;100004.66;688399;28;1967;-61
2023/03/06 00:43:56;;;;;;;17.42;11.63;;;;;;;1.72;100.00;99999.50;685677;28;1315;-61
2023/03/06 00:44:16;;;;;;;17.90;12.07;;;;;;;1.83;100.00;100004.06;685369;28;1358;-61
2023/03/06 00:44:40;;;;;;;18.52;11.77;;;;;;;1.90;100.00;100005.06;685964;28;1312;-60
2023/03/06 00:45:00;;;;;;;17.40;11.52;;;;;;;1.98;100.00;99994.88;684328;28;4320;-61
2023/03/06 00:45:21;;;;;;;17.05;11.30;;;;;;;1.90;100.00;100006.75;684081;28;1173;-61
2023/03/06 00:45:41;;;;;;;17.30;11.47;;;;;;;1.96;100.00;100001.72;683812;28;1358;-61
2023/03/06 00:46:02;;;;;;;15.77;11.30;;;;;;;1.98;100.00;99997.44;687428;28;1187;-61
2023/03/06 00:46:22;;;;;;;16.52;11.27;;;;;;;1.94;100.00;100006.84;688576;28;1331;-60
2023/03/06 00:46:46;;;;;;;16.20;11.45;;;;;;;1.92;100.00;100000.78;689202;28;1045;-61
2023/03/06 00:47:07;;;;;;;15.77;10.63;;;;;;;1.87;100.00;99998.13;689896;28;1675;-61
2023/03/06 00:47:27;;;;;;;15.30;10.57;;;;;;;1.97;100.00;99994.00;691806;28;1203;-61
2023/03/06 00:47:48;;;;;;;16.17;11.33;;;;;;;2.00;100.00;99998.38;691431;28;1072;-61
2023/03/06 00:48:09;;;;;;;18.15;12.07;;;;;;;1.94;100.00;99998.22;695743;28;4314;-61
2023/03/06 00:48:29;;;;;;;17.55;11.32;;;;;;;1.89;100.00;99998.16;687359;28;1465;-60
2023/03/06 00:48:49;;;;;;;17.85;11.50;;;;;;;1.92;100.00;99992.19;690938;28;1100;-61
2023/03/06 00:49:11;;;;;;;18.15;11.82;;;;;;;1.92;100.00;99994.78;690325;28;1366;-61
2023/03/06 00:49:31;;;;;;;18.43;11.40;;;;;;;1.91;100.00;99991.34;687153;28;1261;-61
2023/03/06 00:49:52;;;;;;;16.23;10.95;;;;;;;1.93;100.00;99991.38;688587;28;4381;-61
2023/03/06 00:50:12;;;;;;;16.20;11.30;;;;;;;1.89;100.00;99993.00;688709;28;1243;-61
2023/03/06 00:50:34;;;;;;;16.63;11.13;;;;;;;1.83;100.00;99996.31;691517;28;1244;-61
2023/03/06 00:50:54;;;;;;;17.50;11.57;;;;;;;1.83;100.00;99993.75;687973;28;4406;-62
2023/03/06 00:51:16;;;;;;;17.60;12.17;;;;;;;1.85;100.00;99991.19;690471;28;986;-60
2023/03/06 00:51:36;;;;;;;17.40;11.65;;;;;;;1.84;100.00;99997.19;692638;28;1065;-61
2023/03/06 00:51:57;;;;;;;16.87;11.43;;;;;;;1.83;100.00;99995.47;692318;28;1400;-61
2023/03/06 00:52:18;;;;;;;15.65;11.15;;;;;;;1.81;100.00;99998.00;692829;28;1290;-61
2023/03/06 00:52:39;;;;;;;16.23;11.35;;;;;;;1.79;100.00;99989.38;692011;28;1108;-61
2023/03/06 00:53:04;;;;;;;17.73;11.82;;;;;;;1.81;100.00;99994.56;692736;28;1406;-61
2023/03/06 00:53:25;;;;;;;16.58;11.77;;;;;;;1.79;100.00;99998.81;691861;28;1117;-61
2023/03/06 00:53:45;;;;;;;17.57;11.77;;;;;;;1.78;100.00;99999.66;691049;28;1025;-61
2023/03/06 00:54:05;;;;;;;17.65;11.68;;;;;;;1.76;100.00;99991.00;690419;28;4737;-61
2023/03/06 00:54:26;;;;;;;17.23;11.90;;;;;;;1.75;100.00;99992.72;692383;28;1159;-61
2023/03/06 00:54:46;;;;;;;18.07;12.00;;;;;;;1.72;100.00;99990.09;692503;28;1127;-60
2023/03/06 00:55:07;;;;;;;17.00;11.50;;;;;;;1.84;100.00;99992.91;697876;28;993;-61
2023/03/06 00:55:29;;;;;;;17.88;11.68;;;;;;;1.92;100.00;99987.91;698138;28;1003;-61
2023/03/06 00:55:50;;;;;;;18.00;11.57;;;;;;;1.86;100.00;99982.63;698235;28;1166;-61
2023/03/06 00:56:10;;;;;;;17.67;11.80;;;;;;;1.80;100.00;99990.22;693264;28;1226;-62
2023/03/06 00:56:31;;;;;;;18.30;12.17;;;;;;;1.76;100.00;99991.00;693606;28;1088;-61
2023/03/06 00:56:52;;;;;;;17.52;11.98;;;;;;;1.73;100.00;99991.84;693612;28;4473;-61
2023/03/06 00:57:12;;;;;;;16.90;11.93;;;;;;;1.72;100.00;99994.34;692410;28;1056;-61
2023/03/06 00:57:32;;;;;;;17.70;12.20;;;;;;;1.72;100.00;99986.63;688790;28;1432;-61
2023/03/06 00:57:53;;;;;;;18.83;12.18;;;;;;;1.73;100.00;99985.78;691378;28;1278;-61
2023/03/06 00:58:13;;;;;;;18.13;11.60;;;;;;;1.75;100.00;99989.28;691884;28;1060;-62
2023/03/06 00:58:34;;;;;;;17.50;12.10;;;;;;;1.78;100.00;99984.19;691163;28;1839;-61
2023/03/06 00:58:54;;;;;;;18.00;12.00;;;;;;;1.77;100.00;99985.03;689338;28;1231;-61
2023/03/06 00:59:15;;;;;;;18.55;11.73;;;;;;;1.78;100.00;99986.78;685710;28;1170;-61
2023/03/06 00:59:35;;;;;;;17.00;11.53;;;;;;;1.75;100.00;99984.13;685720;28;1228;-61
2023/03/06 00:59:56;;;;;;;17.45;11.68;;;;;;;1.73;100.00;99986.69;689805;28;4461;-61
2023/03/06 01:00:17;;;;;;;18.23;11.45;;;;;;;1.72;100.00;99984.03;688223;28;1180;-61
2023/03/06 01:00:42;;;;;;;16.48;11.20;;;;;;;1.75;100.00;99989.28;685600;28;1295;-61
2023/03/06 01:01:03;;;;;;;18.05;11.60;;;;;;;1.79;100.00;99988.50;688222;28;1192;-61
2023/03/06 01:01:24;;;;;;;18.00;11.82;;;;;;;1.79;100.00;99985.94;689990;28;1366;-61
2023/03/06 01:01:44;;;;;;;17.00;11.77;;;;;;;1.79;100.00;99983.34;693139;28;1317;-62
2023/03/06 01:02:10;;;;;;;16.63;11.73;;;;;;;1.84;100.00;99979.13;690148;28;1061;-61
2023/03/06 01:02:30;;;;;;;16.00;11.82;;;;;;;1.84;100.00;99971.41;692043;28;1075;-61
2023/03/06 01:02:52;;;;;;;17.13;11.57;;;;;;;1.85;100.00;99978.31;690084;28;4599;-61
2023/03/06 01:03:17;;;;;;;16.02;11.40;;;;;;;1.81;100.00;99986.81;688751;28;1504;-61
2023/03/06 01:03:38;;;;;;;17.42;11.60;;;;;;;1.75;100.00;99981.56;686303;28;2019;-61
2023/03/06 01:03:58;;;;;;;17.73;11.70;;;;;;;1.72;100.00;99979.78;688796;28;1358;-61
2023/03/06 01:04:19;;;;;;;17.40;12.07;;;;;;;1.69;100.00;99980.59;687383;28;1373;-61
2023/03/06 01:04:41;;;;;;;18.08;12.05;;;;;;;1.69;100.00;99979.72;689027;28;5186;-61
2023/03/06 01:05:02;;;;;;;18.88;12.20;;;;;;;1.69;100.00;99979.72;690357;28;1997;-61
2023/03/06 01:05:25;;;;;;;18.15;11.77;;;;;;;1.83;100.00;99974.84;688963;28;1335;-61
2023/03/06 01:05:46;;;;;;;17.55;11.40;;;;;;;1.91;100.00;99978.44;688763;28;1980;-61
2023/03/06 01:06:06;;;;;;;16.65;11.40;;;;;;;1.88;100.00;99978.38;685107;28;4369;-61
2023/03/06 01:06:29;;;;;;;15.18;10.82;;;;;;;1.88;100.00;99975.78;685830;28;1184;-60
2023/03/06 01:06:52;;;;;;;17.42;11.45;;;;;;;1.89;100.00;99976.69;690022;28;1134;-61
2023/03/06 01:07:13;;;;;;;16.63;11.63;;;;;;;1.86;100.00;99977.47;689907;28;1202;-61
2023/03/06 01:07:36;;;;;;;17.58;11.20;;;;;;;1.83;100.00;99967.13;688757;28;1128;-61
2023/03/06 01:07:56;;;;;;;16.93;11.10;;;;;;;1.80;100.00;99967.03;689322;28;1066;-61
2023/03/06 01:08:17;;;;;;;16.35;11.10;;;;;;;1.79;100.00;99968.75;686556;28;1184;-60
2023/03/06 01:08:37;;;;;;;15.90;11.00;;;;;;;1.77;100.00;99970.41;687493;28;1211;-61
2023/03/06 01:08:57;;;;;;;16.13;11.20;;;;;;;1.76;100.00;99971.28;686993;28;4745;-61
2023/03/06 01:09:18;;;;;;;17.50;11.77;;;;;;;1.75;100.00;99974.69;689478;28;1195;-61
2023/03/06 01:09:39;;;;;;;19.13;11.50;;;;;;;1.82;100.00;99975.69;692052;28;1112;-61
2023/03/06 01:09:59;;;;;;;18.25;10.98;;;;;;;1.90;100.00;99968.97;691231;28;1336;-61
2023/03/06 01:10:20;;;;;;;17.00;11.37;;;;;;;1.87;100.00;99969.78;694808;28;1136;-61
2023/03/06 01:10:41;;;;;;;16.75;11.90;;;;;;;1.85;100.00;99970.56;693451;28;1292;-61
2023/03/06 01:11:03;;;;;;;17.45;12.18;;;;;;;1.82;100.00;99966.22;694679;28;1207;-61
2023/03/06 01:11:23;;;;;;;17.77;12.10;;;;;;;1.80;100.00;99967.91;693034;28;1333;-61
2023/03/06 01:11:43;;;;;;;17.17;12.10;;;;;;;1.84;100.00;99961.09;693277;28;1643;-62
2023/03/06 01:12:05;;;;;;;18.77;12.63;;;;;;;1.83;100.00;99970.56;693372;28;4583;-62
2023/03/06 01:12:25;;;;;;;19.60;12.45;;;;;;;1.83;100.00;99961.97;695705;28;1155;-61
2023/03/06 01:12:46;;;;;;;18.40;12.27;;;;;;;1.80;100.00;99967.03;693363;28;1384;-61
2023/03/06 01:13:06;;;;;;;18.48;12.52;;;;;;;1.78;100.00;99963.56;693609;28;1154;-61
2023/03/06 01:13:26;;;;;;;18.30;12.40;;;;;;;1.78;100.00;99961.84;697423;28;1130;-61
2023/03/06 01:13:47;;;;;;;17.77;11.48;;;;;;;1.79;100.00;99965.31;698384;28;1055;-61
2023/03/06 01:14:07;;;;;;;18.55;11.93;;;;;;;1.76;100.00;99965.22;697142;28;1098;-61
2023/03/06 01:14:28;;;;;;;18.33;11.90;;;;;;;1.75;100.00;99958.38;696772;28;1145;-61
2023/03/06 01:14:48;;;;;;;19.15;11.90;;;;;;;1.78;100.00;99966.16;695997;28;1686;-60
2023/03/06 01:15:12;;;;;;;18.30;11.90;;;;;;;1.78;100.00;99963.56;694287;28;4574;-61
2023/03/06 01:15:32;;;;;;;17.38;12.20;;;;;;;1.76;100.00;99963.53;694819;28;2060;-61
2023/03/06 01:15:52;;;;;;;17.98;11.70;;;;;;;1.73;100.00;99970.34;691623;28;1248;-61
2023/03/06 01:16:17;;;;;;;17.58;11.57;;;;;;;1.71;100.00;99965.16;692880;28;2099;-61
2023/03/06 01:16:38;;;;;;;18.80;12.07;;;;;;;1.73;100.00;99965.19;692155;28;1197;-61
2023/03/06 01:16:58;;;;;;;18.10;12.13;;;;;;;1.79;100.00;99958.44;696346;28;1194;-61
2023/03/06 01:17:19;;;;;;;19.63;12.93;;;;;;;1.79;100.00;99960.16;693976;28;1180;-62
2023/03/06 01:17:39;;;;;;;18.47;12.33;;;;;;;1.80;100.00;99967.03;691426;28;1314;-61
2023/03/06 01:17:59;;;;;;;17.37;12.10;;;;;;;1.77;100.00;99957.53;693850;28;4453;-61
2023/03/06 01:18:20;;;;;;;17.05;11.75;;;;;;;1.76;100.00;99950.66;690666;28;1154;-61
2023/03/06 01:18:41;;;;;;;17.63;12.13;;;;;;;1.78;100.00;99961.00;691038;28;1318;-61
2023/03/06 01:19:01;;;;;;;17.13;11.35;;;;;;;1.76;100.00;99960.97;687427;28;1298;-61
2023/03/06 01:19:22;;;;;;;17.33;11.40;;;;;;;1.75;100.00;99963.53;692122;28;1230;-61
2023/03/06 01:19:42;;;;;;;16.87;11.40;;;;;;;1.75;100.00;99955.78;692499;28;1079;-61
2023/03/06 01:20:04;;;;;;;17.58;11.57;;;;;;;1.76;100.00;99967.81;689908;28;1172;-61
2023/03/06 01:20:25;;;;;;;17.33;11.82;;;;;;;1.72;100.00;99955.69;693572;28;1108;-61
2023/03/06 01:20:46;;;;;;;16.77;11.75;;;;;;;1.73;100.00;99954.88;691717;28;1423;-61
2023/03/06 01:21:07;;;;;;;15.80;11.25;;;;;;;1.78;100.00;99956.69;695648;28;4503;-61
2023/03/06 01:21:31;;;;;;;16.95;11.52;;;;;;;1.80;100.00;99956.72;688926;28;1480;-61
2023/03/06 01:21:52;;;;;;;17.02;11.63;;;;;;;1.78;100.00;99958.41;690978;28;1250;-61
2023/03/06 01:22:12;;;;;;;18.00;11.60;;;;;;;1.77;100.00;99961.81;693238;28;1187;-62
2023/03/06 01:22:33;;;;;;;17.42;11.52;;;;;;;1.80;100.00;99957.63;692369;28;1796;-60
2023/03/06 01:22:55;;;;;;;17.40;11.43;;;;;;;1.82;100.00;99957.63;691850;28;1267;-60
2023/03/06 01:23:18;;;;;;;15.52;10.95;;;;;;;1.80;100.00;99962.78;694235;28;1556;-61
2023/03/06 01:23:39;;;;;;;15.65;11.27;;;;;;;1.77;100.00;99951.50;693806;28;1278;-61
2023/03/06 01:23:59;;;;;;;18.03;11.80;;;;;;;1.74;100.00;99951.47;690406;28;5286;-61
2023/03/06 01:24:19;;;;;;;17.63;11.52;;;;;;;1.72;100.00;99953.13;692960;28;1325;-61
2023/03/06 01:24:40;;;;;;;16.45;11.32;;;;;;;1.72;100.00;99947.97;695532;28;1040;-61
2023/03/06 01:25:01;;;;;;;16.63;11.63;;;;;;;1.74;100.00;99946.31;692155;28;1910;-61
2023/03/06 01:25:25;;;;;;;17.72;11.92;;;;;;;1.75;100.00;99953.22;691935;28;2060;-61
2023/03/06 01:25:46;;;;;;;16.35;11.60;;;;;;;1.73;100.00;99954.88;690247;28;1344;-60
2023/03/06 01:26:06;;;;;;;15.70;11.88;;;;;;;1.71;100.00;99952.28;689900;28;1100;-61
2023/03/06 01:26:26;;;;;;;17.37;12.33;;;;;;;1.70;100.00;99947.94;688938;28;929;-61
2023/03/06 01:26:48;;;;;;;18.73;12.27;;;;;;;1.75;100.00;99953.22;691163;28;977;-61
2023/03/06 01:27:08;;;;;;;17.92;12.25;;;;;;;1.75;100.00;99950.63;691302;28;4354;-61
2023/03/06 01:27:30;;;;;;;17.35;11.93;;;;;;;1.74;100.00;99948.88;694062;28;1369;-62
2023/03/06 01:27:51;;;;;;;17.48;11.88;;;;;;;1.74;100.00;99947.16;691916;28;1292;-61
2023/03/06 01:28:12;;;;;;;17.08;11.70;;;;;;;1.75;100.00;99943.75;688187;28;1085;-61
2023/03/06 01:28:34;;;;;;;16.70;11.60;;;;;;;1.75;100.00;99948.06;688511;28;1351;-61
2023/03/06 01:28:56;;;;;;;18.90;12.10;;;;;;;1.75;100.00;99959.22;688325;28;1089;-61
2023/03/06 01:29:16;;;;;;;17.67;11.85;;;;;;;1.73;100.00;99947.13;686872;28;1256;-61
2023/03/06 01:29:40;;;;;;;17.97;11.63;;;;;;;1.72;100.00;99953.13;688841;28;1761;-61
2023/03/06 01:30:04;;;;;;;17.08;11.65;;;;;;;1.70;100.00;99946.25;690258;28;4370;-61
2023/03/06 01:30:24;;;;;;;17.48;12.07;;;;;;;1.70;100.00;99951.41;692381;28;1210;-60
2023/03/06 01:30:45;;;;;;;18.33;11.93;;;;;;;1.72;100.00;99947.97;692461;28;1456;-59
2023/03/06 01:31:07;;;;;;;17.63;12.07;;;;;;;1.76;100.00;99945.50;694295;28;1213;-61
2023/03/06 01:31:28;;;;;;;19.13;11.90;;;;;;;1.86;100.00;99946.56;696334;28;1171;-61
2023/03/06 01:31:48;;;;;;;17.98;11.65;;;;;;;1.88;100.00;99950.00;692299;28;1362;-60
2023/03/06 01:32:08;;;;;;;16.97;11.73;;;;;;;1.95;100.00;99946.72;696845;28;1277;-61
2023/03/06 01:32:32;;;;;;;16.42;11.45;;;;;;;1.96;100.00;99945.00;695871;28;1218;-60
2023/03/06 01:32:53;;;;;;;18.05;11.45;;;;;;;1.91;100.00;99947.50;692935;28;4607;-61
2023/03/06 01:33:13;;;;;;;17.73;11.53;;;;;;;1.89;100.00;99949.19;693476;28;1211;-61
2023/03/06 01:33:34;;;;;;;16.15;11.60;;;;;;;1.85;100.00;99939.66;694414;28;1281;-61
2023/03/06 01:33:54;;;;;;;16.92;11.82;;;;;;;1.87;100.00;99943.13;698522;28;1178;-61
2023/03/06 01:34:15;;;;;;;16.57;12.20;;;;;;;1.84;100.00;99940.47;698643;28;1195;-61
2023/03/06 01:34:38;;;;;;;16.80;11.95;;;;;;;1.82;100.00;99940.44;696434;28;1190;-60
2023/03/06 01:34:59;;;;;;;16.65;11.50;;;;;;;1.83;100.00;99943.91;694441;28;1484;-60
2023/03/06 01:35:19;;;;;;;17.33;11.47;;;;;;;1.80;100.00;99947.31;692002;28;1306;-61
2023/03/06 01:35:42;;;;;;;16.57;11.83;;;;;;;1.78;100.00;99943.81;692985;28;1182;-61
2023/03/06 01:36:06;;;;;;;17.90;11.98;;;;;;;1.83;100.00;99943.91;687772;28;4382;-61
2023/03/06 01:36:26;;;;;;;17.48;11.90;;;;;;;1.81;100.00;99940.44;687140;28;1434;-61
2023/03/06 01:36:49;;;;;;;18.33;11.77;;;;;;;1.80;100.00;99939.56;688991;28;1112;-61
2023/03/06 01:37:10;;;;;;;18.20;12.48;;;;;;;1.90;100.00;99938.03;690643;28;1223;-62
2023/03/06 01:37:31;;;;;;;16.73;11.80;;;;;;;1.93;100.00;99938.09;688489;28;1223;-61
2023/03/06 01:37:51;;;;;;;18.30;12.00;;;;;;;1.89;100.00;99936.28;691570;28;1172;-62
2023/03/06 01:38:12;;;;;;;18.23;11.70;;;;;;;1.85;100.00;99940.50;694705;28;1116;-61
2023/03/06 01:38:34;;;;;;;16.85;12.35;;;;;;;1.82;100.00;99934.44;694245;28;1066;-61
2023/03/06 01:38:55;;;;;;;18.52;12.45;;;;;;;1.81;100.00;99937.84;692175;28;4371;-61
2023/03/06 01:39:16;;;;;;;17.55;11.95;;;;;;;1.80;100.00;99936.09;690586;28;1242;-61
2023/03/06 01:39:36;;;;;;;17.97;12.10;;;;;;;1.76;100.00;99945.50;689853;28;1001;-61